Time;durP1;ratioP1;P1;durP2;ratioP2;P2;SDS_P1;SDS_P2;PMS_P1;PMS_P2;Temp;Humidity;BMP_temperature;BMP_pressure;BME280_temperature;BME280_humidity;BME280_pressure;Samples;Min_cycle;Max_cycle;Signal;HPM_P1;HPM_P2
2022/11/29 00:01:20;;;;;;;1.77;1.77;;;17.90;72.40;;;;;;5114617;27;44854;-70
2022/11/29 00:03:48;;;;;;;1.87;1.87;;;18.00;72.00;;;;;;5122390;27;43464;-70
2022/11/29 00:06:18;;;;;;;1.70;1.70;;;18.10;71.80;;;;;;5115790;27;43930;-70
2022/11/29 00:08:46;;;;;;;1.90;1.90;;;18.00;71.70;;;;;;5121957;27;44018;-71
2022/11/29 00:12:10;;;;;;;1.60;1.60;;;18.00;71.80;;;;;;5119514;27;43532;-70
2022/11/29 00:14:06;;;;;;;1.70;1.70;;;18.00;72.10;;;;;;5119032;27;43982;-71
2022/11/29 00:16:34;;;;;;;1.60;1.60;;;18.00;71.90;;;;;;5119417;27;43462;-69
2022/11/29 00:19:02;;;;;;;1.53;1.53;;;18.00;72.00;;;;;;5119532;27;43769;-71
2022/11/29 00:21:30;;;;;;;1.70;1.70;;;17.90;71.90;;;;;;5117944;27;43486;-71
2022/11/29 00:23:58;;;;;;;1.70;1.70;;;17.90;72.00;;;;;;5120633;27;43429;-70
2022/11/29 00:26:27;;;;;;;1.60;1.60;;;17.90;72.10;;;;;;5124657;27;43836;-72
2022/11/29 00:28:55;;;;;;;1.70;1.70;;;17.90;72.20;;;;;;5121209;27;43861;-71
2022/11/29 00:31:24;;;;;;;1.70;1.70;;;17.90;72.40;;;;;;5118053;27;43605;-69
2022/11/29 00:33:52;;;;;;;1.90;1.90;;;17.80;72.40;;;;;;5122404;27;43476;-72
2022/11/29 00:36:20;;;;;;;1.70;1.70;;;17.80;72.50;;;;;;5109606;27;43958;-71
2022/11/29 00:38:48;;;;;;;1.60;1.60;;;17.80;72.50;;;;;;5116683;27;44161;-71
2022/11/29 00:41:16;;;;;;;1.57;1.57;;;17.80;72.50;;;;;;5117321;27;44562;-70
2022/11/29 00:43:45;;;;;;;1.97;1.97;;;17.80;72.60;;;;;;5125430;27;43524;-70
2022/11/29 00:46:13;;;;;;;1.70;1.70;;;17.80;72.60;;;;;;5118314;27;43433;-72
2022/11/29 00:48:41;;;;;;;1.70;1.70;;;17.80;72.90;;;;;;5115095;27;43855;-70
2022/11/29 00:51:09;;;;;;;1.77;1.77;;;17.80;72.80;;;;;;5117273;27;43931;-71
2022/11/29 00:53:37;;;;;;;1.50;1.50;;;17.90;72.50;;;;;;5122183;27;44025;-71
2022/11/29 00:56:05;;;;;;;1.70;1.70;;;18.10;72.20;;;;;;5118917;27;43432;-70
2022/11/29 00:58:37;;;;;;;1.87;1.87;;;18.20;71.80;;;;;;5124103;27;43788;-70
2022/11/29 01:01:06;;;;;;;1.60;1.60;;;18.40;71.30;;;;;;5115887;27;45262;-70
2022/11/29 01:03:34;;;;;;;1.60;1.60;;;18.50;70.70;;;;;;5114826;27;43981;-71
2022/11/29 01:06:02;;;;;;;1.57;1.57;;;18.70;70.30;;;;;;5116089;27;44499;-71
2022/11/29 01:08:30;;;;;;;1.57;1.57;;;18.80;69.80;;;;;;5116864;27;43595;-72
2022/11/29 01:11:03;;;;;;;1.63;1.63;;;19.00;69.40;;;;;;5122355;27;43390;-71
2022/11/29 01:13:31;;;;;;;1.67;1.63;;;19.10;69.10;;;;;;5109596;27;43412;-70
2022/11/29 01:15:59;;;;;;;1.50;1.50;;;19.20;68.80;;;;;;5115077;27;43443;-70
2022/11/29 01:18:29;;;;;;;1.73;1.73;;;19.20;68.50;;;;;;5114600;27;43907;-71
2022/11/29 01:20:58;;;;;;;1.40;1.40;;;19.20;68.50;;;;;;5116557;27;43400;-71
2022/11/29 01:23:26;;;;;;;1.50;1.50;;;19.10;68.80;;;;;;5122788;27;43362;-70
2022/11/29 01:26:01;;;;;;;1.50;1.50;;;18.90;69.00;;;;;;5121299;27;43479;-72
2022/11/29 01:28:29;;;;;;;1.50;1.50;;;18.70;69.70;;;;;;5120152;27;44003;-71
2022/11/29 01:30:57;;;;;;;1.43;1.43;;;18.60;70.10;;;;;;5120004;27;43461;-71
2022/11/29 01:33:25;;;;;;;1.40;1.40;;;18.60;70.30;;;;;;5124928;27;43386;-71
2022/11/29 01:35:54;;;;;;;1.40;1.40;;;18.50;70.30;;;;;;5120530;27;43638;-71
2022/11/29 01:38:23;;;;;;;1.60;1.60;;;18.40;70.60;;;;;;5127091;27;45695;-71
2022/11/29 01:40:58;;;;;;;1.60;1.60;;;18.30;70.90;;;;;;5119351;27;44961;-71
2022/11/29 01:43:26;;;;;;;1.40;1.40;;;18.20;71.60;;;;;;5127098;27;43396;-70
2022/11/29 01:45:54;;;;;;;1.47;1.47;;;18.20;71.50;;;;;;5114956;27;43518;-70
2022/11/29 01:48:24;;;;;;;1.50;1.50;;;18.10;71.30;;;;;;5129954;27;43699;-70
2022/11/29 01:50:53;;;;;;;1.40;1.40;;;18.10;71.40;;;;;;5110899;27;43454;-71
2022/11/29 01:53:21;;;;;;;1.30;1.30;;;18.10;71.60;;;;;;5125972;27;43989;-70
2022/11/29 01:55:52;;;;;;;1.50;1.50;;;18.00;71.90;;;;;;5125660;27;43452;-71
2022/11/29 01:58:20;;;;;;;1.40;1.40;;;18.10;72.30;;;;;;5127066;27;43855;-70
2022/11/29 02:00:49;;;;;;;1.60;1.60;;;18.10;72.10;;;;;;5116775;27;43912;-74
2022/11/29 02:03:18;;;;;;;1.40;1.40;;;18.20;71.60;;;;;;5121992;27;43448;-75
2022/11/29 02:05:47;;;;;;;1.30;1.30;;;18.30;71.40;;;;;;5115261;27;43431;-76
2022/11/29 02:08:20;;;;;;;1.33;1.33;;;18.30;71.10;;;;;;5123904;27;43841;-75
2022/11/29 02:10:59;;;;;;;1.30;1.30;;;18.30;71.60;;;;;;5121661;27;43425;-76
2022/11/29 02:13:31;;;;;;;1.30;1.30;;;18.30;71.70;;;;;;5120807;27;43775;-75
2022/11/29 02:16:00;;;;;;;1.30;1.30;;;18.20;71.30;;;;;;5114655;27;43599;-75
2022/11/29 02:18:31;;;;;;;1.30;1.30;;;18.20;71.30;;;;;;5115734;27;43598;-73
2022/11/29 02:21:20;;;;;;;1.20;1.20;;;18.10;71.40;;;;;;5119306;27;45923;-75
2022/11/29 02:24:23;;;;;;;1.30;1.30;;;18.10;71.60;;;;;;5115382;27;43485;-73
2022/11/29 02:27:22;;;;;;;1.23;1.23;;;18.10;72.20;;;;;;5115340;27;43458;-74
2022/11/29 02:30:07;;;;;;;1.20;1.20;;;18.00;71.90;;;;;;5121990;27;43614;-75
2022/11/29 02:33:05;;;;;;;1.10;1.10;;;18.00;71.90;;;;;;5109091;27;43453;-75
2022/11/29 02:35:43;;;;;;;1.13;1.13;;;18.00;72.00;;;;;;5123420;27;43420;-75
2022/11/29 02:38:21;;;;;;;1.30;1.30;;;17.90;72.10;;;;;;5123385;27;43413;-76
2022/11/29 02:41:02;;;;;;;1.27;1.27;;;17.90;72.40;;;;;;5117565;27;43603;-75
2022/11/29 02:44:04;;;;;;;1.13;1.13;;;17.90;72.10;;;;;;5116884;27;43502;-71
2022/11/29 02:46:56;;;;;;;1.20;1.20;;;17.90;72.00;;;;;;5104500;27;43492;-75
2022/11/29 02:49:33;;;;;;;1.30;1.30;;;17.90;72.20;;;;;;5123464;27;44309;-72
2022/11/29 02:52:02;;;;;;;1.23;1.23;;;17.90;72.30;;;;;;5120813;27;43696;-74
2022/11/29 02:54:34;;;;;;;1.20;1.20;;;17.90;72.70;;;;;;5122514;27;44875;-73
2022/11/29 02:57:06;;;;;;;1.23;1.23;;;18.00;72.60;;;;;;5116974;27;43544;-75
2022/11/29 02:59:41;;;;;;;1.00;1.00;;;18.10;72.20;;;;;;5108858;27;43408;-71
2022/11/29 03:02:14;;;;;;;1.10;1.10;;;18.20;71.80;;;;;;5122351;27;43601;-75
2022/11/29 03:04:47;;;;;;;1.20;1.20;;;18.30;71.50;;;;;;5120508;27;43493;-75
2022/11/29 03:07:19;;;;;;;1.20;1.20;;;18.20;71.30;;;;;;5120235;27;43541;-76
2022/11/29 03:09:49;;;;;;;1.20;1.20;;;18.20;71.90;;;;;;5112044;27;43419;-73
2022/11/29 03:12:19;;;;;;;1.10;1.10;;;18.20;71.90;;;;;;5122246;27;43598;-76
2022/11/29 03:14:54;;;;;;;1.20;1.20;;;18.10;71.50;;;;;;5121073;27;43400;-72
2022/11/29 03:17:30;;;;;;;1.20;1.20;;;18.10;71.60;;;;;;5123735;27;44003;-73
2022/11/29 03:20:07;;;;;;;1.00;1.00;;;18.00;71.70;;;;;;5124239;27;43526;-74
2022/11/29 03:22:41;;;;;;;1.10;1.10;;;18.00;71.90;;;;;;5119154;27;43939;-75
2022/11/29 03:25:12;;;;;;;1.27;1.27;;;18.00;72.40;;;;;;5111563;27;44884;-73
2022/11/29 03:27:42;;;;;;;1.10;1.10;;;18.00;72.10;;;;;;5118558;27;43397;-75
2022/11/29 03:30:11;;;;;;;0.93;0.93;;;18.00;72.10;;;;;;5120846;27;43472;-74
2022/11/29 03:32:43;;;;;;;1.20;1.20;;;17.90;72.10;;;;;;5118213;27;43871;-73
2022/11/29 03:35:14;;;;;;;1.10;1.10;;;17.90;72.20;;;;;;5122679;27;44745;-74
2022/11/29 03:37:45;;;;;;;1.13;1.13;;;17.90;72.40;;;;;;5114789;27;43503;-72
2022/11/29 03:40:15;;;;;;;1.10;1.10;;;17.90;72.60;;;;;;5122244;27;43443;-75
2022/11/29 03:42:45;;;;;;;1.00;1.00;;;17.90;72.30;;;;;;5122567;27;43609;-76
2022/11/29 03:45:16;;;;;;;1.10;1.10;;;17.90;72.40;;;;;;5118228;27;44779;-76
2022/11/29 03:47:49;;;;;;;1.10;1.10;;;17.90;72.40;;;;;;5121302;27;43354;-73
2022/11/29 03:50:20;;;;;;;1.10;1.10;;;17.90;72.40;;;;;;5119334;27;43477;-75
2022/11/29 03:52:49;;;;;;;1.20;1.20;;;17.90;72.80;;;;;;5116739;27;45431;-76
2022/11/29 03:55:30;;;;;;;1.10;1.10;;;17.90;72.80;;;;;;5125052;27;44276;-74
2022/11/29 03:58:08;;;;;;;0.93;0.93;;;18.00;72.50;;;;;;5121560;27;44203;-72
2022/11/29 04:00:45;;;;;;;1.07;1.07;;;18.20;72.20;;;;;;5106748;27;44106;-76
2022/11/29 04:03:28;;;;;;;1.10;1.10;;;18.20;71.70;;;;;;5113079;27;43821;-75
2022/11/29 04:06:18;;;;;;;1.00;1.00;;;18.20;71.50;;;;;;5108870;27;43497;-75
2022/11/29 04:09:11;;;;;;;1.30;1.30;;;18.10;71.90;;;;;;5106909;27;43508;-74
2022/11/29 04:12:00;;;;;;;1.10;1.10;;;18.10;71.60;;;;;;5113228;27;43411;-72
2022/11/29 04:14:31;;;;;;;1.10;1.10;;;18.10;71.60;;;;;;5094973;27;46047;-75
2022/11/29 04:17:16;;;;;;;1.10;1.10;;;18.10;71.80;;;;;;5119388;27;43409;-74
2022/11/29 04:20:00;;;;;;;0.97;0.97;;;18.00;71.80;;;;;;5120293;27;43477;-72
2022/11/29 04:22:43;;;;;;;1.10;1.10;;;18.00;72.30;;;;;;5122901;27;43452;-75
2022/11/29 04:25:26;;;;;;;1.00;1.00;;;18.00;72.20;;;;;;5108102;27;43913;-75
2022/11/29 04:28:03;;;;;;;1.10;1.10;;;18.00;72.00;;;;;;5125060;27;43442;-74
2022/11/29 04:30:33;;;;;;;1.37;1.37;;;18.00;72.00;;;;;;5124146;27;43418;-76
2022/11/29 04:33:27;;;;;;;1.23;1.23;;;18.00;72.20;;;;;;5109580;27;43415;-74
2022/11/29 04:36:12;;;;;;;1.20;1.20;;;17.90;72.30;;;;;;5104951;27;44862;-73
2022/11/29 04:39:18;;;;;;;1.20;1.20;;;17.90;72.50;;;;;;5107438;27;43413;-75
2022/11/29 04:42:02;;;;;;;1.20;1.20;;;17.90;72.30;;;;;;5110901;27;43401;-74
2022/11/29 04:44:54;;;;;;;1.40;1.40;;;17.90;72.30;;;;;;5119846;27;43915;-74
2022/11/29 04:47:49;;;;;;;1.50;1.40;;;17.90;72.40;;;;;;5111994;27;46522;-74
2022/11/29 04:50:26;;;;;;;2.13;2.03;;;17.90;72.40;;;;;;5100184;27;44263;-74
2022/11/29 04:53:16;;;;;;;2.73;2.00;;;17.90;72.80;;;;;;5104932;27;43536;-73
2022/11/29 04:55:45;;;;;;;2.00;1.90;;;18.00;72.70;;;;;;5110372;27;43466;-75
2022/11/29 04:58:19;;;;;;;2.40;2.00;;;18.10;72.30;;;;;;5109002;27;44058;-75
2022/11/29 05:00:53;;;;;;;2.70;2.00;;;18.20;71.90;;;;;;5110951;27;44809;-74
2022/11/29 05:03:23;;;;;;;2.93;2.10;;;18.20;71.60;;;;;;5122803;27;43431;-74
2022/11/29 05:05:53;;;;;;;2.33;2.10;;;18.10;71.80;;;;;;5116753;27;43550;-74
2022/11/29 05:08:25;;;;;;;2.73;2.30;;;18.20;72.00;;;;;;5120429;27;43859;-75
2022/11/29 05:10:59;;;;;;;2.87;2.20;;;18.10;71.70;;;;;;5120935;27;44717;-74
2022/11/29 05:13:31;;;;;;;2.40;2.20;;;18.10;71.70;;;;;;5125088;27;43398;-76
2022/11/29 05:16:15;;;;;;;2.00;1.90;;;18.10;71.90;;;;;;5117071;27;43621;-75
2022/11/29 05:19:11;;;;;;;2.50;2.20;;;18.00;72.00;;;;;;5108848;27;45598;-73
2022/11/29 05:21:45;;;;;;;2.63;2.43;;;18.00;72.40;;;;;;5110895;27;43463;-76
2022/11/29 05:24:24;;;;;;;2.20;2.10;;;18.00;72.40;;;;;;5111102;27;44111;-76
2022/11/29 05:26:55;;;;;;;2.37;2.17;;;17.90;72.20;;;;;;5113021;27;43484;-72
2022/11/29 05:29:29;;;;;;;2.50;2.37;;;17.90;72.20;;;;;;5113707;27;43696;-74
2022/11/29 05:32:02;;;;;;;2.10;2.00;;;17.90;72.30;;;;;;5112426;27;43546;-73
2022/11/29 05:34:45;;;;;;;3.97;2.53;;;17.90;72.50;;;;;;5111074;27;43466;-76
2022/11/29 05:37:20;;;;;;;2.10;2.00;;;17.90;72.60;;;;;;5114258;27;43493;-76
2022/11/29 05:39:55;;;;;;;2.43;2.20;;;17.90;72.50;;;;;;5111663;27;45678;-76
2022/11/29 05:42:37;;;;;;;2.40;2.20;;;17.90;72.50;;;;;;5110127;27;45261;-74
2022/11/29 05:45:09;;;;;;;2.37;2.17;;;17.90;72.50;;;;;;5108129;27;43484;-76
2022/11/29 05:47:41;;;;;;;2.27;2.17;;;17.90;72.60;;;;;;5128058;27;43978;-73
2022/11/29 05:50:11;;;;;;;2.43;2.33;;;17.80;72.80;;;;;;5110493;27;43908;-76
2022/11/29 05:52:44;;;;;;;2.10;2.00;;;17.90;72.90;;;;;;5119417;27;43467;-74
2022/11/29 05:55:19;;;;;;;2.07;1.97;;;18.00;72.60;;;;;;5127402;27;43468;-76
2022/11/29 05:57:52;;;;;;;3.33;2.27;;;18.10;72.20;;;;;;5108346;27;43446;-76
2022/11/29 06:00:22;;;;;;;2.30;2.17;;;18.10;71.90;;;;;;5116116;27;45381;-72
2022/11/29 06:02:53;;;;;;;2.57;2.37;;;18.10;71.90;;;;;;5128836;27;43411;-75
2022/11/29 06:05:25;;;;;;;2.20;2.10;;;18.10;72.30;;;;;;5104609;27;43898;-75
2022/11/29 06:07:56;;;;;;;2.33;2.13;;;18.10;72.20;;;;;;5120031;27;43907;-75
2022/11/29 06:10:25;;;;;;;2.07;1.97;;;18.00;72.00;;;;;;5113138;27;44068;-75
2022/11/29 06:12:59;;;;;;;2.40;2.23;;;18.00;72.00;;;;;;5117056;27;43410;-74
2022/11/29 06:15:42;;;;;;;2.10;2.00;;;18.00;72.10;;;;;;5119191;27;43449;-71
2022/11/29 06:18:20;;;;;;;2.60;2.50;;;18.00;72.40;;;;;;5117074;27;44099;-76
2022/11/29 06:21:06;;;;;;;2.27;2.13;;;18.00;72.50;;;;;;5120566;27;46090;-73
2022/11/29 06:23:42;;;;;;;2.10;2.00;;;17.90;72.20;;;;;;5125149;27;43964;-75
2022/11/29 06:26:17;;;;;;;2.20;2.10;;;18.00;72.40;;;;;;5116999;27;43380;-72
2022/11/29 06:28:53;;;;;;;2.50;2.30;;;17.90;72.30;;;;;;5117048;27;43900;-76
2022/11/29 06:31:24;;;;;;;2.70;2.50;;;17.90;72.40;;;;;;5116872;27;45820;-76
2022/11/29 06:33:56;;;;;;;2.20;2.10;;;17.90;72.80;;;;;;5123219;27;43817;-76
2022/11/29 06:36:26;;;;;;;2.20;2.10;;;18.00;72.80;;;;;;5123119;27;43888;-75
2022/11/29 06:38:55;;;;;;;2.20;2.10;;;18.10;72.50;;;;;;5117192;27;43481;-75
2022/11/29 06:41:23;;;;;;;2.67;2.47;;;18.10;72.10;;;;;;5120106;27;43929;-73
2022/11/29 06:43:52;;;;;;;2.23;2.13;;;18.10;71.80;;;;;;5118568;27;44579;-74
2022/11/29 06:46:26;;;;;;;2.33;2.20;;;18.20;71.90;;;;;;5116210;27;44022;-72
2022/11/29 06:48:59;;;;;;;2.13;2.03;;;18.10;72.20;;;;;;5108790;27;43896;-73
2022/11/29 06:51:31;;;;;;;2.30;2.20;;;18.10;72.10;;;;;;5106484;27;43839;-74
2022/11/29 06:54:04;;;;;;;2.10;2.00;;;18.10;72.00;;;;;;5121132;27;43457;-76
2022/11/29 06:56:35;;;;;;;2.10;2.00;;;18.10;72.10;;;;;;5120808;27;43438;-73
2022/11/29 06:59:07;;;;;;;2.43;2.17;;;18.00;72.70;;;;;;5122069;27;43576;-74
2022/11/29 07:01:39;;;;;;;2.50;2.23;;;18.00;72.20;;;;;;5123302;27;46983;-72
2022/11/29 07:04:16;;;;;;;2.50;2.40;;;18.00;72.50;;;;;;5120756;27;43462;-74
2022/11/29 07:06:44;;;;;;;2.10;2.00;;;18.00;72.40;;;;;;5123620;27;43855;-76
2022/11/29 07:09:14;;;;;;;2.50;2.37;;;18.00;72.30;;;;;;5117147;27;43804;-73
2022/11/29 07:11:42;;;;;;;2.00;1.90;;;18.00;72.40;;;;;;5118264;27;43894;-75
2022/11/29 07:14:11;;;;;;;2.30;2.20;;;18.00;72.40;;;;;;5120331;27;43563;-72
2022/11/29 07:16:43;;;;;;;2.53;2.43;;;17.90;72.60;;;;;;5125615;27;43926;-75
2022/11/29 07:19:16;;;;;;;2.40;2.30;;;17.90;72.50;;;;;;5109021;27;43978;-72
2022/11/29 07:21:48;;;;;;;2.40;2.30;;;17.90;72.40;;;;;;5112890;27;43911;-75
2022/11/29 07:24:23;;;;;;;2.43;2.33;;;17.90;72.40;;;;;;5112237;27;43466;-74
2022/11/29 07:26:53;;;;;;;2.50;2.40;;;17.90;72.50;;;;;;5117553;27;43472;-75
2022/11/29 07:29:29;;;;;;;2.50;2.40;;;17.90;72.50;;;;;;5104705;27;43443;-74
2022/11/29 07:32:05;;;;;;;2.77;2.57;;;17.90;72.80;;;;;;5126848;27;43847;-71
2022/11/29 07:34:36;;;;;;;2.17;2.07;;;18.00;72.80;;;;;;5121825;27;43415;-74
2022/11/29 07:37:07;;;;;;;2.27;2.17;;;18.10;72.50;;;;;;5111961;27;43521;-73
2022/11/29 07:39:41;;;;;;;2.60;2.40;;;18.20;72.10;;;;;;5119275;27;43461;-74
2022/11/29 07:42:14;;;;;;;3.10;2.80;;;18.20;71.80;;;;;;5121501;27;43885;-73
2022/11/29 07:44:50;;;;;;;2.40;2.30;;;18.20;71.70;;;;;;5119233;27;43923;-73
2022/11/29 07:47:19;;;;;;;3.03;2.83;;;18.10;72.10;;;;;;5108483;27;43467;-75
2022/11/29 07:49:47;;;;;;;2.50;2.40;;;18.10;71.90;;;;;;5109136;27;43976;-72
2022/11/29 07:52:15;;;;;;;2.23;2.13;;;18.10;71.80;;;;;;5108490;27;43913;-73
2022/11/29 07:54:43;;;;;;;2.50;2.37;;;18.10;71.90;;;;;;5126455;27;43900;-75
2022/11/29 07:57:12;;;;;;;2.30;2.20;;;18.10;72.10;;;;;;5120871;27;43452;-75
2022/11/29 07:59:40;;;;;;;2.57;2.37;;;18.10;72.20;;;;;;5120300;27;44000;-74
2022/11/29 08:02:09;;;;;;;2.50;2.40;;;18.00;72.60;;;;;;5115653;27;43926;-77
2022/11/29 08:04:42;;;;;;;2.30;2.20;;;18.00;72.40;;;;;;5106371;27;43472;-73
2022/11/29 08:07:11;;;;;;;2.57;2.47;;;18.00;72.40;;;;;;5116411;27;43372;-75
2022/11/29 08:09:42;;;;;;;2.00;2.00;;;18.00;72.30;;;;;;5122934;27;43898;-74
2022/11/29 08:12:10;;;;;;;2.30;2.20;;;18.00;72.40;;;;;;5119034;27;43610;-73
2022/11/29 08:14:38;;;;;;;2.63;2.53;;;18.00;72.50;;;;;;5123845;27;43482;-75
2022/11/29 08:17:06;;;;;;;2.60;2.50;;;17.90;72.80;;;;;;5109987;27;43567;-74
2022/11/29 08:19:33;;;;;;;2.33;2.30;;;17.90;72.50;;;;;;5116978;27;43442;-76
2022/11/29 08:22:03;;;;;;;2.90;2.70;;;17.90;72.50;;;;;;5122674;27;45964;-74
2022/11/29 08:24:31;;;;;;;2.33;2.23;;;17.90;72.50;;;;;;5117706;27;43539;-71
2022/11/29 08:26:59;;;;;;;2.43;2.33;;;17.90;72.50;;;;;;5121965;27;43498;-75
2022/11/29 08:29:26;;;;;;;2.80;2.70;;;17.90;72.60;;;;;;5124588;27;43452;-74
2022/11/29 08:31:54;;;;;;;2.50;2.40;;;17.90;72.90;;;;;;5109025;27;43939;-75
2022/11/29 08:34:23;;;;;;;2.40;2.30;;;18.00;72.70;;;;;;5116200;27;43448;-73
2022/11/29 08:36:51;;;;;;;2.20;2.20;;;18.10;72.40;;;;;;5122743;27;43407;-75
2022/11/29 08:39:20;;;;;;;2.30;2.20;;;18.20;72.00;;;;;;5114226;27;43575;-73
2022/11/29 08:41:49;;;;;;;2.57;2.47;;;18.20;71.70;;;;;;5116338;27;45362;-73
2022/11/29 08:44:17;;;;;;;2.60;2.50;;;18.20;71.80;;;;;;5110915;27;43987;-72
2022/11/29 08:49:30;;;;;;;2.83;2.63;;;18.20;71.90;;;;;;5124189;27;44091;-74
2022/11/29 08:54:41;;;;;;;2.67;2.57;;;18.10;71.90;;;;;;5121926;27;43426;-74
2022/11/29 08:57:09;;;;;;;2.67;2.57;;;18.10;72.10;;;;;;5110678;27;43483;-75
2022/11/29 08:59:58;;;;;;;2.33;2.23;;;18.10;72.20;;;;;;5121835;27;43419;-72
2022/11/29 09:02:25;;;;;;;2.20;2.10;;;18.10;72.50;;;;;;5120517;27;44110;-76
2022/11/29 09:04:53;;;;;;;2.37;2.27;;;18.00;72.20;;;;;;5117296;27;43745;-75
2022/11/29 09:07:21;;;;;;;2.47;2.37;;;18.00;72.20;;;;;;5117168;27;43456;-75
2022/11/29 09:09:51;;;;;;;2.50;2.40;;;18.00;72.30;;;;;;5121203;27;43570;-75
2022/11/29 09:12:19;;;;;;;2.40;2.30;;;18.00;73.00;;;;;;5122336;27;43843;-73
2022/11/29 09:14:46;;;;;;;2.40;2.30;;;18.00;72.60;;;;;;5118938;27;43383;-75
2022/11/29 09:17:14;;;;;;;2.40;2.30;;;18.00;72.50;;;;;;5117828;27;43423;-76
2022/11/29 09:19:42;;;;;;;2.47;2.40;;;18.00;72.40;;;;;;5119653;27;43498;-74
2022/11/29 09:22:10;;;;;;;2.13;2.13;;;18.00;72.30;;;;;;5120094;27;45662;-73
2022/11/29 09:24:38;;;;;;;2.30;2.20;;;18.00;72.40;;;;;;5115637;27;44253;-75
2022/11/29 09:27:08;;;;;;;2.30;2.23;;;18.00;72.40;;;;;;5119072;27;43424;-72
2022/11/29 09:29:36;;;;;;;2.10;2.10;;;18.00;72.70;;;;;;5108307;27;43989;-76
2022/11/29 09:32:04;;;;;;;2.87;2.70;;;18.00;72.60;;;;;;5113186;27;43759;-73
2022/11/29 09:34:32;;;;;;;2.47;2.37;;;18.10;72.30;;;;;;5118134;27;44891;-75
2022/11/29 09:36:59;;;;;;;2.33;2.23;;;18.20;72.00;;;;;;5120229;27;43475;-76
2022/11/29 09:39:27;;;;;;;2.10;2.10;;;18.20;71.80;;;;;;5116465;27;44044;-73
2022/11/29 09:42:18;;;;;;;2.33;2.23;;;18.20;71.80;;;;;;5120461;27;43990;-76
2022/11/29 09:44:54;;;;;;;2.40;2.30;;;18.20;72.20;;;;;;5113438;27;43435;-73
2022/11/29 09:47:31;;;;;;;2.73;2.63;;;18.10;71.90;;;;;;5113026;27;43433;-76
2022/11/29 09:50:20;;;;;;;2.17;2.17;;;18.10;71.90;;;;;;5120445;27;43553;-72
2022/11/29 09:52:52;;;;;;;2.40;2.30;;;18.10;72.10;;;;;;5115496;27;44050;-75
2022/11/29 09:55:33;;;;;;;2.17;2.17;;;18.10;72.20;;;;;;5122144;27;44723;-72
2022/11/29 09:58:02;;;;;;;2.30;2.20;;;18.00;72.30;;;;;;5112973;27;43414;-69
2022/11/29 10:00:30;;;;;;;2.37;2.27;;;18.00;72.50;;;;;;5122032;27;44102;-74
2022/11/29 10:03:00;;;;;;;2.43;2.33;;;18.00;72.30;;;;;;5121625;27;43842;-73
2022/11/29 10:05:31;;;;;;;2.40;2.30;;;18.00;72.30;;;;;;5122411;27;43954;-76
2022/11/29 10:08:00;;;;;;;2.20;2.20;;;18.00;72.40;;;;;;5118807;27;43401;-76
2022/11/29 10:10:30;;;;;;;2.20;2.20;;;18.00;72.50;;;;;;5124594;27;43336;-77
2022/11/29 10:13:03;;;;;;;2.47;2.37;;;18.00;72.60;;;;;;5118411;27;45663;-73
2022/11/29 10:15:32;;;;;;;2.13;2.13;;;18.00;72.80;;;;;;5125102;27;43435;-74
2022/11/29 10:18:02;;;;;;;2.33;2.23;;;18.10;72.60;;;;;;5118692;27;43475;-72
2022/11/29 10:20:31;;;;;;;2.17;2.13;;;18.20;72.20;;;;;;5112879;27;43579;-74
2022/11/29 10:23:13;;;;;;;2.03;2.03;;;18.20;71.80;;;;;;5124074;27;45804;-75
2022/11/29 10:25:44;;;;;;;2.50;2.40;;;18.20;71.70;;;;;;5116106;27;43592;-74
2022/11/29 10:28:15;;;;;;;2.23;2.23;;;18.20;71.90;;;;;;5115149;27;44016;-75
2022/11/29 10:30:43;;;;;;;2.40;2.30;;;18.20;72.00;;;;;;5112913;27;43431;-74
2022/11/29 10:33:15;;;;;;;2.10;2.00;;;18.20;71.90;;;;;;5117541;27;45350;-75
2022/11/29 10:35:43;;;;;;;2.27;2.23;;;18.10;72.60;;;;;;5124404;27;43509;-73
2022/11/29 10:38:11;;;;;;;2.20;2.10;;;18.10;72.00;;;;;;5115471;27;43371;-75
2022/11/29 10:41:06;;;;;;;2.17;2.07;;;18.10;72.20;;;;;;5115740;27;43437;-75
2022/11/29 10:43:36;;;;;;;2.13;2.07;;;18.00;72.40;;;;;;5106350;27;45460;-72
2022/11/29 10:46:04;;;;;;;2.47;2.37;;;18.00;72.40;;;;;;5114684;27;44879;-73
2022/11/29 10:48:33;;;;;;;2.33;2.23;;;18.00;72.40;;;;;;5114598;27;44036;-73
2022/11/29 10:51:02;;;;;;;2.37;2.20;;;18.00;72.40;;;;;;5114418;27;43476;-72
2022/11/29 10:53:32;;;;;;;2.23;2.20;;;18.00;72.50;;;;;;5114960;27;44244;-75
2022/11/29 10:56:01;;;;;;;2.23;2.13;;;18.00;72.60;;;;;;5114783;27;43505;-75
2022/11/29 10:58:29;;;;;;;2.13;2.10;;;17.90;72.80;;;;;;5119682;27;43914;-71
2022/11/29 11:00:59;;;;;;;2.30;2.20;;;17.90;72.60;;;;;;5121690;27;43474;-75
2022/11/29 11:03:31;;;;;;;2.00;2.00;;;17.90;72.50;;;;;;5118506;27;44873;-76
2022/11/29 11:06:09;;;;;;;2.30;2.20;;;17.90;72.60;;;;;;5116889;27;43468;-74
2022/11/29 11:08:38;;;;;;;2.00;2.00;;;17.90;72.60;;;;;;5114154;27;43498;-76
2022/11/29 11:11:06;;;;;;;1.90;1.90;;;17.90;72.80;;;;;;5119811;27;43584;-76
2022/11/29 11:13:34;;;;;;;2.20;2.10;;;17.90;73.00;;;;;;5115617;27;44211;-76
2022/11/29 11:16:17;;;;;;;2.30;2.20;;;18.00;72.80;;;;;;5127523;27;43962;-74
2022/11/29 11:18:45;;;;;;;2.30;2.10;;;18.10;72.30;;;;;;5122911;27;43339;-75
2022/11/29 11:21:14;;;;;;;2.50;2.40;;;18.20;72.00;;;;;;5120305;27;43560;-73
2022/11/29 11:23:46;;;;;;;2.00;2.00;;;18.20;71.60;;;;;;5117700;27;44018;-75
2022/11/29 11:26:14;;;;;;;2.43;2.27;;;18.20;71.70;;;;;;5123065;27;43497;-74
2022/11/29 11:28:44;;;;;;;2.07;2.00;;;18.20;72.00;;;;;;5125400;27;43501;-71
2022/11/29 11:31:12;;;;;;;1.93;1.93;;;18.20;71.80;;;;;;5115189;27;43438;-75
2022/11/29 11:33:41;;;;;;;2.10;2.10;;;18.20;71.90;;;;;;5123636;27;43859;-75
2022/11/29 11:36:12;;;;;;;1.60;1.60;;;18.20;72.00;;;;;;5107659;27;44729;-76
2022/11/29 11:38:41;;;;;;;2.03;1.97;;;18.10;72.00;;;;;;5124813;27;43454;-75
2022/11/29 11:42:35;;;;;;;1.90;1.90;;;18.10;72.20;;;;;;5116179;27;43561;-75
2022/11/29 11:44:21;;;;;;;1.90;1.90;;;18.10;72.50;;;;;;5113124;27;43926;-73
2022/11/29 11:47:14;;;;;;;2.07;2.07;;;18.10;72.30;;;;;;5101100;27;44347;-76
2022/11/29 11:49:49;;;;;;;1.87;1.83;;;18.10;72.40;;;;;;5108642;27;43391;-75
2022/11/29 11:52:19;;;;;;;2.00;2.00;;;18.00;72.40;;;;;;5106107;27;43497;-73
2022/11/29 11:54:48;;;;;;;1.90;1.90;;;18.00;72.50;;;;;;5124769;27;43885;-74
2022/11/29 11:57:17;;;;;;;1.87;1.80;;;18.00;72.70;;;;;;5126298;27;43475;-72
2022/11/29 11:59:47;;;;;;;2.10;2.00;;;18.00;72.60;;;;;;5118962;27;43368;-75
2022/11/29 12:02:25;;;;;;;1.90;1.90;;;18.00;72.50;;;;;;5122931;27;43401;-73
2022/11/29 12:04:54;;;;;;;1.90;1.90;;;18.00;72.50;;;;;;5114158;27;45708;-75
2022/11/29 12:07:25;;;;;;;2.00;2.00;;;18.00;72.60;;;;;;5118204;27;43538;-72
2022/11/29 12:10:17;;;;;;;1.90;1.90;;;18.00;72.70;;;;;;5119255;27;43892;-72
2022/11/29 12:12:45;;;;;;;2.40;2.30;;;18.00;72.90;;;;;;5125850;27;43521;-76
2022/11/29 12:15:16;;;;;;;1.70;1.70;;;18.00;72.70;;;;;;5113232;27;45575;-73
2022/11/29 12:17:46;;;;;;;1.83;1.83;;;18.20;72.30;;;;;;5101405;27;44283;-74
2022/11/29 12:20:19;;;;;;;2.00;1.90;;;18.30;72.00;;;;;;5127377;27;43393;-75
2022/11/29 12:22:54;;;;;;;1.80;1.80;;;18.30;71.80;;;;;;5119767;27;43441;-75
2022/11/29 12:25:23;;;;;;;1.90;1.90;;;18.30;71.90;;;;;;5122865;27;43859;-73
2022/11/29 12:27:51;;;;;;;1.83;1.80;;;18.20;72.00;;;;;;5115658;27;43986;-75
2022/11/29 12:30:20;;;;;;;2.00;2.00;;;18.20;71.90;;;;;;5110998;27;43501;-76
2022/11/29 12:33:08;;;;;;;1.73;1.73;;;18.20;72.60;;;;;;5121256;27;43823;-76
2022/11/29 12:35:50;;;;;;;1.80;1.80;;;18.10;72.00;;;;;;5123018;27;43907;-73
2022/11/29 12:38:27;;;;;;;1.70;1.70;;;18.10;72.20;;;;;;5104992;27;44688;-73
2022/11/29 12:40:59;;;;;;;1.70;1.70;;;18.00;72.40;;;;;;5123461;27;43888;-76
2022/11/29 12:43:31;;;;;;;2.13;2.03;;;18.10;72.50;;;;;;5115192;27;43587;-74
2022/11/29 12:46:03;;;;;;;1.60;1.60;;;18.00;72.40;;;;;;5120555;27;43852;-75
2022/11/29 12:48:34;;;;;;;1.50;1.50;;;18.10;72.50;;;;;;5121056;27;43818;-74
2022/11/29 12:51:07;;;;;;;1.40;1.40;;;18.00;72.50;;;;;;5110823;27;43490;-75
2022/11/29 12:53:45;;;;;;;1.90;1.90;;;18.00;72.70;;;;;;5111926;27;43393;-75
2022/11/29 12:56:15;;;;;;;1.70;1.70;;;17.90;73.50;;;;;;5119502;27;46006;-74
2022/11/29 12:58:53;;;;;;;1.60;1.60;;;18.00;72.70;;;;;;5112463;27;44703;-71
2022/11/29 13:01:25;;;;;;;1.60;1.60;;;18.00;72.70;;;;;;5114248;27;43437;-75
2022/11/29 13:03:57;;;;;;;1.77;1.70;;;18.00;72.80;;;;;;5109561;27;43462;-72
2022/11/29 13:06:29;;;;;;;1.80;1.80;;;17.90;72.70;;;;;;5118594;27;43924;-73
2022/11/29 13:09:13;;;;;;;1.80;1.80;;;17.90;73.50;;;;;;5122375;27;45624;-74
2022/11/29 13:11:41;;;;;;;1.87;1.87;;;17.90;73.00;;;;;;5112036;27;43396;-73
2022/11/29 13:14:11;;;;;;;1.70;1.70;;;18.00;72.80;;;;;;5109422;27;43474;-76
2022/11/29 13:17:00;;;;;;;1.70;1.70;;;18.10;72.40;;;;;;5110202;27;43610;-73
2022/11/29 13:19:33;;;;;;;1.93;1.83;;;18.20;72.00;;;;;;5122266;27;43516;-75
2022/11/29 13:22:06;;;;;;;1.67;1.67;;;18.20;71.90;;;;;;5121539;27;43498;-75
2022/11/29 13:24:36;;;;;;;1.60;1.60;;;18.20;72.10;;;;;;5110363;27;44031;-74